createdAt,value
2022-11-02T00:00:30.711Z,1004.55
2022-11-02T00:05:34.911Z,1004.40
2022-11-02T00:10:39.051Z,1004.34
2022-11-02T00:15:43.205Z,1004.17
2022-11-02T00:20:47.370Z,1004.19
2022-11-02T00:25:51.550Z,1004.18
2022-11-02T00:30:55.683Z,1004.08
2022-11-02T00:35:59.831Z,1004.15
2022-11-02T00:41:04.024Z,1003.96
2022-11-02T00:46:08.162Z,1003.71
2022-11-02T00:51:12.367Z,1003.57
2022-11-02T00:56:16.476Z,1003.18
2022-11-02T01:01:20.802Z,1003.18
2022-11-02T01:06:24.843Z,1003.18
2022-11-02T01:11:28.973Z,1003.25
2022-11-02T01:16:33.225Z,1003.32
2022-11-02T01:21:37.417Z,1003.42
2022-11-02T01:26:41.635Z,1003.48
2022-11-02T01:31:45.626Z,1003.48
2022-11-02T01:36:49.793Z,1003.55
2022-11-02T01:41:53.930Z,1003.58
2022-11-02T01:46:58.126Z,1003.56
2022-11-02T01:52:02.274Z,1003.54
2022-11-02T01:57:04.546Z,1003.63
2022-11-02T02:02:08.766Z,1003.65
2022-11-02T02:07:12.871Z,1003.75
2022-11-02T02:12:17.019Z,1003.77
2022-11-02T02:17:21.167Z,1003.87
2022-11-02T02:22:25.342Z,1003.85
2022-11-02T02:27:27.587Z,1003.78
2022-11-02T02:32:31.742Z,1003.83
2022-11-02T02:37:35.911Z,1003.91
2022-11-02T02:42:40.086Z,1003.72
2022-11-02T02:47:44.241Z,1003.78
2022-11-02T02:52:48.420Z,1003.73
2022-11-02T02:57:52.564Z,1003.72
2022-11-02T03:02:56.803Z,1003.84
2022-11-02T03:08:01.083Z,1003.65
2022-11-02T03:13:05.055Z,1003.75
2022-11-02T03:18:09.212Z,1003.71
2022-11-02T03:23:13.372Z,1003.89
2022-11-02T03:28:17.555Z,1003.98
2022-11-02T03:33:21.700Z,1003.99
2022-11-02T03:38:25.859Z,1004.01
2022-11-02T03:43:29.985Z,1004.27
2022-11-02T03:48:34.191Z,1004.24
2022-11-02T03:53:38.317Z,1004.27
2022-11-02T03:58:42.504Z,1004.40
2022-11-02T04:03:46.614Z,1004.38
2022-11-02T04:08:50.825Z,1004.52
2022-11-02T04:13:54.968Z,1004.51
2022-11-02T04:18:59.126Z,1004.46
2022-11-02T04:24:03.330Z,1004.55
2022-11-02T04:29:07.461Z,1004.41
2022-11-02T04:34:11.625Z,1004.62
2022-11-02T04:39:15.760Z,1004.73
2022-11-02T04:44:20.820Z,1004.87
2022-11-02T04:49:24.084Z,1004.98
2022-11-02T04:54:28.274Z,1005.06
2022-11-02T04:59:32.427Z,1005.11
2022-11-02T05:04:36.576Z,1005.12
2022-11-02T05:09:40.772Z,1005.23
2022-11-02T05:14:44.881Z,1005.23
2022-11-02T05:19:49.057Z,1005.33
2022-11-02T05:24:53.213Z,1005.28
2022-11-02T05:29:57.409Z,1005.41
2022-11-02T05:35:01.555Z,1005.47
2022-11-02T05:40:05.686Z,1005.66
2022-11-02T05:45:09.872Z,1005.75
2022-11-02T05:50:14.029Z,1005.66
2022-11-02T05:55:18.164Z,1005.72
2022-11-02T06:00:22.366Z,1005.79
2022-11-02T06:05:26.660Z,1005.85
2022-11-02T06:10:30.702Z,1005.98
2022-11-02T06:15:34.876Z,1006.09
2022-11-02T06:20:39.011Z,1006.21
2022-11-02T06:25:43.134Z,1006.21
2022-11-02T06:30:47.293Z,1006.33
2022-11-02T06:35:51.483Z,1006.31
2022-11-02T06:40:55.642Z,1006.41
2022-11-02T06:45:59.805Z,1006.57
2022-11-02T06:51:03.935Z,1006.81
2022-11-02T06:56:08.173Z,1006.92
2022-11-02T07:01:12.386Z,1007.07
2022-11-02T07:06:16.403Z,1007.02
2022-11-02T07:11:20.606Z,1007.30
2022-11-02T07:16:24.757Z,1007.49
2022-11-02T07:21:28.896Z,1007.66
2022-11-02T07:26:33.081Z,1007.65
2022-11-02T07:31:37.269Z,1007.74
2022-11-02T07:36:41.384Z,1007.86
2022-11-02T07:41:50.744Z,1008.00
2022-11-02T07:46:49.720Z,1008.16
2022-11-02T07:51:53.878Z,1008.30
2022-11-02T07:56:56.147Z,1008.39
2022-11-02T08:02:00.294Z,1008.51
2022-11-02T08:07:04.480Z,1008.57
2022-11-02T08:12:08.655Z,1008.66
2022-11-02T08:17:12.816Z,1008.69
2022-11-02T08:22:16.917Z,1008.58
2022-11-02T08:27:21.117Z,1008.69
2022-11-02T08:32:25.295Z,1008.78
2022-11-02T08:37:29.467Z,1008.84
2022-11-02T08:42:33.580Z,1008.99
2022-11-02T08:47:37.791Z,1009.07
2022-11-02T08:52:41.897Z,1009.20
2022-11-02T08:57:46.099Z,1009.26
2022-11-02T09:02:50.287Z,1009.35
2022-11-02T09:07:54.404Z,1009.61
2022-11-02T09:12:58.562Z,1009.65
2022-11-02T09:18:03.224Z,1009.84
2022-11-02T09:23:06.863Z,1010.01
2022-11-02T09:28:11.241Z,1010.14
2022-11-02T09:33:15.208Z,1010.10
2022-11-02T09:38:19.368Z,1010.11
2022-11-02T09:43:27.051Z,1010.23
2022-11-02T09:48:28.735Z,1010.35
2022-11-02T09:53:31.837Z,1010.22
2022-11-02T09:58:35.999Z,1010.18
2022-11-02T10:03:40.150Z,1010.24
2022-11-02T10:08:44.290Z,1010.43
2022-11-02T10:13:51.245Z,1010.31
2022-11-02T10:18:54.662Z,1010.32
2022-11-02T10:23:56.796Z,1010.45
2022-11-02T10:29:00.950Z,1010.61
2022-11-02T10:34:05.257Z,1010.78
2022-11-02T10:39:09.313Z,1010.60
2022-11-02T10:44:13.430Z,1010.60
2022-11-02T10:49:17.594Z,1010.72
2022-11-02T10:54:26.650Z,1010.91
2022-11-02T10:59:25.975Z,1010.86
2022-11-02T11:04:30.081Z,1010.99
2022-11-02T11:09:34.240Z,1010.99
2022-11-02T11:19:42.543Z,1011.16
2022-11-02T11:24:46.789Z,1011.15
2022-11-02T11:29:50.918Z,1011.27
2022-11-02T11:34:55.066Z,1011.24
2022-11-02T11:45:03.363Z,1011.34
2022-11-02T11:50:15.402Z,1011.51
2022-11-02T11:55:11.677Z,1011.44
2022-11-02T12:00:15.963Z,1011.36
2022-11-02T12:05:20.031Z,1011.37
2022-11-02T12:10:24.171Z,1011.40
2022-11-02T12:15:28.293Z,1011.34
2022-11-02T12:20:32.481Z,1011.35
2022-11-02T12:25:36.654Z,1011.33
2022-11-02T12:30:40.812Z,1011.23
2022-11-02T12:37:18.095Z,1011.17
2022-11-02T12:40:49.224Z,1011.12
2022-11-02T12:45:53.437Z,1011.19
2022-11-02T12:50:57.461Z,1011.26
2022-11-02T12:56:01.576Z,1011.23
2022-11-02T13:01:10.762Z,1011.33
2022-11-02T13:06:09.922Z,1011.26
2022-11-02T13:16:18.214Z,1011.19
2022-11-02T13:21:22.481Z,1011.10
2022-11-02T13:26:24.686Z,1011.13
2022-11-02T13:31:28.883Z,1011.07
2022-11-02T13:36:32.991Z,1010.97
2022-11-02T13:41:37.140Z,1010.94
2022-11-02T13:46:41.301Z,1011.00
2022-11-02T13:51:45.471Z,1011.08
2022-11-02T13:56:49.614Z,1011.12
2022-11-02T14:01:53.926Z,1011.06
2022-11-02T14:06:57.948Z,1011.10
2022-11-02T14:12:02.096Z,1010.96
2022-11-02T14:17:06.224Z,1010.90
2022-11-02T14:22:10.514Z,1010.95
2022-11-02T14:27:14.612Z,1010.82
2022-11-02T14:32:18.745Z,1010.81
2022-11-02T14:37:22.881Z,1010.79
2022-11-02T14:42:27.045Z,1010.73
2022-11-02T14:47:31.247Z,1010.61
2022-11-02T14:52:35.357Z,1010.58
2022-11-02T14:57:39.561Z,1010.58
2022-11-02T15:02:43.697Z,1010.55
2022-11-02T15:07:47.845Z,1010.54
2022-11-02T15:12:51.982Z,1010.36
2022-11-02T15:17:56.192Z,1010.45
2022-11-02T15:23:00.432Z,1010.38
2022-11-02T15:28:04.679Z,1010.29
2022-11-02T15:33:09.274Z,1010.23
2022-11-02T15:38:18.009Z,1010.21
2022-11-02T15:43:16.967Z,1010.15
2022-11-02T15:48:21.157Z,1010.09
2022-11-02T15:53:25.279Z,1010.06
2022-11-02T15:58:29.468Z,1009.88
2022-11-02T16:03:33.620Z,1009.90
2022-11-02T16:08:37.809Z,1009.81
2022-11-02T16:13:49.099Z,1009.85
2022-11-02T16:18:46.134Z,1009.85
2022-11-02T16:23:50.272Z,1009.88
2022-11-02T16:28:54.404Z,1009.84
2022-11-02T16:33:58.589Z,1009.74
2022-11-02T16:39:02.723Z,1009.71
2022-11-02T16:44:08.948Z,1009.65
2022-11-02T16:49:11.077Z,1009.64
2022-11-02T16:54:15.273Z,1009.67
2022-11-02T16:59:19.392Z,1009.62
2022-11-02T17:04:23.559Z,1009.83
2022-11-02T17:09:27.678Z,1009.79
2022-11-02T17:14:31.850Z,1009.69
2022-11-02T17:19:36.037Z,1009.66
2022-11-02T17:24:40.186Z,1009.75
2022-11-02T17:29:44.383Z,1009.78
2022-11-02T17:34:48.535Z,1009.83
2022-11-02T17:39:52.673Z,1009.73
2022-11-02T17:44:56.921Z,1009.85
2022-11-02T17:50:01.113Z,1009.80
2022-11-02T17:55:05.148Z,1009.81
2022-11-02T18:00:09.313Z,1009.84
2022-11-02T18:05:13.473Z,1009.90
2022-11-02T18:10:17.648Z,1009.90
2022-11-02T18:15:21.776Z,1009.86
2022-11-02T18:20:25.996Z,1009.84
2022-11-02T18:25:30.153Z,1009.77
2022-11-02T18:30:34.294Z,1009.78
2022-11-02T18:35:38.419Z,1009.76
2022-11-02T18:40:42.654Z,1009.70
2022-11-02T18:45:46.780Z,1009.61
2022-11-02T18:50:50.932Z,1009.54
2022-11-02T18:55:53.213Z,1009.49
2022-11-02T19:00:57.536Z,1009.53
2022-11-02T19:06:01.535Z,1009.49
2022-11-02T19:11:05.685Z,1009.36
2022-11-02T19:16:09.927Z,1009.38
2022-11-02T19:21:14.035Z,1009.34
2022-11-02T19:26:16.352Z,1009.35
2022-11-02T19:31:20.452Z,1009.25
2022-11-02T19:36:24.563Z,1009.28
2022-11-02T19:41:28.774Z,1009.22
2022-11-02T19:46:34.028Z,1009.12
2022-11-02T19:51:37.079Z,1008.93
2022-11-02T19:56:41.261Z,1008.94
2022-11-02T20:01:45.511Z,1008.88
2022-11-02T20:06:49.650Z,1008.85
2022-11-02T20:11:53.740Z,1008.75
2022-11-02T20:17:10.806Z,1008.62
2022-11-02T20:22:02.119Z,1008.57
2022-11-02T20:27:06.200Z,1008.57
2022-11-02T20:37:14.514Z,1008.36
2022-11-02T20:42:18.646Z,1008.37
2022-11-02T20:47:22.862Z,1008.37
2022-11-02T20:52:27.010Z,1008.42
2022-11-02T20:57:31.175Z,1008.36
2022-11-02T21:02:35.393Z,1008.34
2022-11-02T21:07:39.508Z,1008.19
2022-11-02T21:12:43.802Z,1008.19
2022-11-02T21:17:47.795Z,1008.07
2022-11-02T21:22:51.952Z,1008.13
2022-11-02T21:27:56.130Z,1008.24
2022-11-02T21:33:00.295Z,1008.08
2022-11-02T21:38:06.948Z,1008.01
2022-11-02T21:43:08.926Z,1007.97
2022-11-02T21:48:12.809Z,1007.93
2022-11-02T21:53:16.942Z,1007.93
2022-11-02T21:58:21.072Z,1007.73
2022-11-02T22:03:25.262Z,1007.76
2022-11-02T22:13:33.577Z,1007.64
2022-11-02T22:18:37.718Z,1007.61
2022-11-02T22:23:41.921Z,1007.64
2022-11-02T22:28:46.060Z,1007.50
2022-11-02T22:33:50.215Z,1007.52
2022-11-02T22:38:54.437Z,1007.34
2022-11-02T22:43:58.549Z,1007.30
2022-11-02T22:49:02.746Z,1007.26
2022-11-02T22:54:06.897Z,1007.19
2022-11-02T22:59:11.043Z,1007.06
2022-11-02T23:04:15.174Z,1006.85
2022-11-02T23:09:19.350Z,1006.70
2022-11-02T23:14:23.541Z,1006.75
2022-11-02T23:19:29.001Z,1006.65
2022-11-02T23:24:31.823Z,1006.63
2022-11-02T23:29:35.999Z,1006.56
2022-11-02T23:34:40.177Z,1006.57
2022-11-02T23:39:44.333Z,1006.42
2022-11-02T23:44:48.478Z,1006.42
2022-11-02T23:49:52.633Z,1006.27
2022-11-02T23:54:56.816Z,1006.24
